Time;durP1;ratioP1;P1;durP2;ratioP2;P2;SDS_P1;SDS_P2;PMS_P1;PMS_P2;Temp;Humidity;BMP_temperature;BMP_pressure;BME280_temperature;BME280_humidity;BME280_pressure;Samples;Min_cycle;Max_cycle;Signal;HPM_P1;HPM_P2
2022/03/16 00:02:19;;;;;;;67.13;13.20;;;8.60;99.90;;;;;;5072993;28;20032;-54
2022/03/16 00:04:55;;;;;;;42.03;14.38;;;8.70;99.90;;;;;;5073123;28;20547;-52
2022/03/16 00:07:22;;;;;;;23.13;10.98;;;8.70;99.90;;;;;;5072943;28;20021;-55
2022/03/16 00:09:48;;;;;;;21.58;10.07;;;8.60;99.90;;;;;;5072826;28;20352;-55
2022/03/16 00:12:14;;;;;;;24.65;9.27;;;8.70;99.90;;;;;;5072927;28;20031;-53
2022/03/16 00:14:40;;;;;;;26.25;9.63;;;8.70;99.90;;;;;;5072653;28;20051;-54
2022/03/16 00:17:07;;;;;;;21.48;10.43;;;8.70;99.90;;;;;;5072834;28;20036;-53
2022/03/16 00:19:33;;;;;;;22.75;8.63;;;8.70;99.90;;;;;;5072660;28;20031;-55
2022/03/16 00:22:00;;;;;;;23.90;8.80;;;8.70;99.90;;;;;;5071331;28;20024;-54
2022/03/16 00:24:27;;;;;;;18.92;8.90;;;8.80;99.90;;;;;;5072701;28;20410;-54
2022/03/16 00:26:52;;;;;;;20.85;8.40;;;8.80;99.90;;;;;;5072441;28;20025;-55
2022/03/16 00:29:18;;;;;;;19.00;7.47;;;8.80;99.90;;;;;;5072574;28;20027;-53
2022/03/16 00:31:44;;;;;;;17.52;8.60;;;8.70;99.90;;;;;;5072515;28;20028;-54
2022/03/16 00:34:09;;;;;;;14.50;8.68;;;8.70;99.90;;;;;;5072563;28;20123;-51
2022/03/16 00:36:35;;;;;;;17.58;8.23;;;8.70;99.90;;;;;;5072204;28;20411;-53
2022/03/16 00:39:01;;;;;;;12.88;8.45;;;8.70;99.90;;;;;;5072398;28;20471;-53
2022/03/16 00:41:26;;;;;;;17.73;7.82;;;8.70;99.90;;;;;;5072199;28;20684;-54
2022/03/16 00:43:53;;;;;;;12.88;8.45;;;8.70;99.90;;;;;;5072263;28;20024;-52
2022/03/16 00:46:19;;;;;;;9.45;7.70;;;8.70;99.90;;;;;;5072280;28;20056;-56
2022/03/16 00:48:44;;;;;;;11.82;8.27;;;8.70;99.90;;;;;;5072042;28;20060;-55
2022/03/16 00:51:10;;;;;;;10.75;9.20;;;8.80;99.90;;;;;;5072103;28;20108;-54
2022/03/16 00:53:39;;;;;;;10.18;8.82;;;8.70;99.90;;;;;;5071952;28;20082;-53
2022/03/16 00:56:05;;;;;;;17.77;9.02;;;8.80;99.90;;;;;;5072036;28;20028;-53
2022/03/16 00:58:31;;;;;;;12.23;9.15;;;8.70;99.90;;;;;;5072063;28;20742;-55
2022/03/16 01:00:58;;;;;;;10.48;9.35;;;8.80;99.90;;;;;;5071829;28;20107;-54
2022/03/16 01:03:23;;;;;;;17.25;9.60;;;8.80;99.90;;;;;;5071763;28;20012;-51
2022/03/16 01:05:49;;;;;;;12.20;8.95;;;8.80;99.90;;;;;;5071250;28;20086;-52
2022/03/16 01:08:15;;;;;;;12.75;8.57;;;8.80;99.90;;;;;;5071950;28;20016;-54
2022/03/16 01:10:40;;;;;;;13.07;10.50;;;8.80;99.90;;;;;;5071651;28;20035;-54
2022/03/16 01:13:06;;;;;;;12.07;9.23;;;8.70;99.90;;;;;;5071762;28;20545;-52
2022/03/16 01:15:32;;;;;;;10.45;7.85;;;8.70;99.90;;;;;;5071768;28;20032;-53
2022/03/16 01:17:58;;;;;;;10.13;9.13;;;8.70;99.90;;;;;;5071866;28;20032;-52
2022/03/16 01:20:23;;;;;;;7.80;6.97;;;8.70;99.90;;;;;;5071701;28;20116;-54
2022/03/16 01:22:49;;;;;;;15.88;7.70;;;8.70;99.90;;;;;;5071596;28;20032;-55
2022/03/16 01:25:15;;;;;;;9.32;7.82;;;8.70;99.90;;;;;;5071596;28;20016;-51
2022/03/16 01:27:41;;;;;;;8.80;7.90;;;8.70;99.90;;;;;;5071807;28;20028;-54
2022/03/16 01:30:07;;;;;;;9.07;8.23;;;8.60;99.90;;;;;;5071712;28;20035;-56
2022/03/16 01:32:33;;;;;;;8.25;7.45;;;8.60;99.90;;;;;;5071526;28;20028;-55
2022/03/16 01:34:59;;;;;;;9.40;8.45;;;8.60;99.90;;;;;;5070325;28;20074;-55
2022/03/16 01:37:24;;;;;;;9.15;8.25;;;8.60;99.90;;;;;;5071583;28;20081;-52
2022/03/16 01:39:50;;;;;;;12.68;9.48;;;8.50;99.90;;;;;;5071339;28;20024;-51
2022/03/16 01:42:16;;;;;;;10.90;9.23;;;8.50;99.90;;;;;;5071558;28;20526;-55
2022/03/16 01:44:44;;;;;;;9.68;8.75;;;8.40;99.90;;;;;;5071609;28;20467;-51
2022/03/16 01:47:11;;;;;;;10.10;9.02;;;8.40;99.90;;;;;;5071496;28;20434;-53
2022/03/16 01:49:37;;;;;;;9.20;8.20;;;8.40;99.90;;;;;;5071377;28;20017;-51
2022/03/16 01:52:03;;;;;;;14.18;9.73;;;8.50;99.90;;;;;;5071496;28;20043;-54
2022/03/16 01:54:29;;;;;;;11.23;9.95;;;8.40;99.90;;;;;;5071306;28;20052;-55
2022/03/16 01:56:54;;;;;;;13.00;11.05;;;8.40;99.90;;;;;;5071368;28;20052;-53
2022/03/16 01:59:20;;;;;;;11.48;9.63;;;8.40;99.90;;;;;;5071361;28;20093;-55
2022/03/16 02:01:45;;;;;;;9.95;9.00;;;8.30;99.90;;;;;;5071182;28;20042;-52
2022/03/16 02:04:11;;;;;;;10.02;8.70;;;8.30;99.90;;;;;;5071328;28;20021;-52
2022/03/16 02:06:37;;;;;;;9.88;8.88;;;8.30;99.90;;;;;;5071314;28;20032;-54
2022/03/16 02:09:02;;;;;;;14.20;11.15;;;8.30;99.90;;;;;;5071208;28;20027;-55
2022/03/16 02:11:28;;;;;;;14.90;9.77;;;8.20;99.90;;;;;;5069964;28;20029;-55
2022/03/16 02:13:54;;;;;;;12.60;11.27;;;8.30;99.90;;;;;;5070938;28;20079;-53
2022/03/16 02:16:19;;;;;;;13.50;11.43;;;8.20;99.90;;;;;;5073535;28;20474;-55
2022/03/16 02:18:45;;;;;;;14.43;11.80;;;8.30;99.90;;;;;;5075027;28;20460;-51
2022/03/16 02:21:13;;;;;;;17.48;12.10;;;8.30;99.90;;;;;;5075028;28;20029;-52
2022/03/16 02:23:39;;;;;;;12.25;10.00;;;8.30;99.90;;;;;;5074936;28;20504;-52
2022/03/16 02:26:05;;;;;;;14.63;10.60;;;8.30;99.90;;;;;;5075011;28;20017;-53
2022/03/16 02:28:30;;;;;;;11.82;10.63;;;8.30;99.90;;;;;;5074826;28;20052;-56
2022/03/16 02:30:56;;;;;;;15.00;12.57;;;8.30;99.90;;;;;;5074674;28;20032;-51
2022/03/16 02:33:22;;;;;;;16.67;13.55;;;8.20;99.90;;;;;;5073586;28;20035;-51
2022/03/16 02:35:47;;;;;;;26.73;18.45;;;8.20;99.90;;;;;;5074710;28;20028;-54
2022/03/16 02:38:13;;;;;;;20.10;14.57;;;8.20;99.90;;;;;;5074710;28;20028;-55
2022/03/16 02:40:39;;;;;;;19.05;13.38;;;8.20;99.90;;;;;;5074542;28;20051;-55
2022/03/16 02:43:05;;;;;;;33.67;20.30;;;8.20;99.90;;;;;;5074593;28;20024;-51
2022/03/16 02:45:31;;;;;;;31.98;20.33;;;8.20;99.90;;;;;;5074429;28;20016;-54
2022/03/16 02:47:57;;;;;;;60.00;28.92;;;8.20;99.90;;;;;;5074546;28;20097;-53
2022/03/16 02:50:23;;;;;;;37.63;23.08;;;8.30;99.90;;;;;;5074593;28;20048;-52
2022/03/16 02:52:48;;;;;;;34.10;21.17;;;8.20;99.90;;;;;;5074235;28;20032;-56
2022/03/16 02:55:14;;;;;;;25.25;17.17;;;8.30;99.90;;;;;;5074616;28;20032;-51
2022/03/16 02:57:40;;;;;;;47.88;27.33;;;8.20;99.90;;;;;;5074360;28;20438;-52
2022/03/16 03:00:08;;;;;;;30.42;19.65;;;8.20;99.90;;;;;;5074204;28;20053;-50
2022/03/16 03:02:34;;;;;;;36.03;22.88;;;8.20;99.90;;;;;;5074028;28;20028;-51
2022/03/16 03:05:00;;;;;;;51.20;27.75;;;8.20;99.90;;;;;;5073005;28;20074;-54
2022/03/16 03:07:26;;;;;;;25.55;18.30;;;8.20;99.90;;;;;;5074234;28;20484;-51
2022/03/16 03:09:51;;;;;;;92.15;40.78;;;8.30;99.90;;;;;;5074126;28;20082;-53
2022/03/16 03:12:17;;;;;;;26.17;18.60;;;8.20;99.90;;;;;;5074110;28;20033;-56
2022/03/16 03:14:43;;;;;;;34.65;21.80;;;8.20;99.90;;;;;;5073825;28;20038;-52
2022/03/16 03:17:09;;;;;;;25.17;19.10;;;8.10;99.90;;;;;;5072849;28;20452;-53
2022/03/16 03:19:35;;;;;;;25.90;20.13;;;8.10;99.90;;;;;;5073898;28;20540;-52
2022/03/16 03:22:01;;;;;;;24.55;21.10;;;8.00;99.90;;;;;;5073979;28;20048;-53
2022/03/16 03:24:27;;;;;;;28.35;21.92;;;7.90;99.90;;;;;;5073134;28;20052;-53
2022/03/16 03:26:52;;;;;;;26.75;21.55;;;7.70;99.90;;;;;;5071554;28;20107;-55
2022/03/16 03:29:18;;;;;;;26.95;20.88;;;7.50;99.90;;;;;;5072514;28;20027;-54
2022/03/16 03:31:44;;;;;;;28.73;21.70;;;7.30;99.90;;;;;;5072413;28;20099;-52
2022/03/16 03:34:10;;;;;;;26.38;21.55;;;7.20;99.90;;;;;;5073011;28;20040;-55
2022/03/16 03:36:35;;;;;;;25.48;19.63;;;7.10;99.90;;;;;;5073214;28;20040;-55
2022/03/16 03:39:01;;;;;;;23.83;19.77;;;6.90;99.90;;;;;;5073440;28;20036;-55
2022/03/16 03:41:27;;;;;;;24.92;20.65;;;7.00;99.90;;;;;;5072654;28;20069;-53
2022/03/16 03:43:52;;;;;;;28.27;20.13;;;6.90;99.90;;;;;;5072100;28;20029;-53
2022/03/16 03:46:18;;;;;;;22.60;18.15;;;6.90;99.90;;;;;;5072360;28;20023;-54
2022/03/16 03:48:44;;;;;;;26.83;19.15;;;6.90;99.90;;;;;;5071989;28;20104;-52
2022/03/16 03:51:09;;;;;;;26.15;19.88;;;6.80;99.90;;;;;;5072486;28;20024;-51
2022/03/16 03:53:35;;;;;;;24.98;19.77;;;6.70;99.90;;;;;;5072807;28;20466;-49
2022/03/16 03:56:01;;;;;;;25.15;19.60;;;6.70;99.90;;;;;;5072463;28;20483;-49
2022/03/16 03:58:26;;;;;;;24.27;18.85;;;6.80;99.90;;;;;;5072346;28;20617;-49
2022/03/16 04:00:53;;;;;;;25.77;19.35;;;6.70;99.90;;;;;;5072080;28;20063;-52
2022/03/16 04:03:18;;;;;;;29.88;20.23;;;6.80;99.90;;;;;;5071488;28;20076;-55
2022/03/16 04:05:44;;;;;;;26.88;20.15;;;6.70;99.90;;;;;;5072866;28;20439;-55
2022/03/16 04:08:10;;;;;;;25.60;19.80;;;6.70;99.90;;;;;;5072912;28;20060;-54
2022/03/16 04:10:38;;;;;;;25.60;19.15;;;6.70;99.90;;;;;;5071591;28;20043;-50
2022/03/16 04:13:05;;;;;;;24.33;18.33;;;6.70;99.90;;;;;;5072506;28;20041;-54
2022/03/16 04:15:31;;;;;;;22.77;17.58;;;6.60;99.90;;;;;;5072541;28;20025;-54
2022/03/16 04:17:56;;;;;;;23.58;18.92;;;6.60;99.90;;;;;;5072619;28;20028;-50
2022/03/16 04:20:22;;;;;;;25.73;19.20;;;6.60;99.90;;;;;;5071693;28;20013;-53
2022/03/16 04:22:48;;;;;;;24.45;18.77;;;6.60;99.90;;;;;;5065450;28;20044;-54
2022/03/16 04:25:14;;;;;;;32.35;23.13;;;6.60;99.90;;;;;;5061100;28;20075;-58
2022/03/16 04:27:40;;;;;;;42.33;27.95;;;6.70;99.90;;;;;;5060843;28;20104;-55
2022/03/16 04:30:07;;;;;;;63.30;37.30;;;6.70;99.90;;;;;;5071602;28;20020;-49
2022/03/16 04:32:32;;;;;;;34.85;24.42;;;6.70;99.90;;;;;;5071271;28;20024;-55
2022/03/16 04:34:58;;;;;;;39.92;27.27;;;6.70;99.90;;;;;;5071484;28;20016;-53
2022/03/16 04:37:24;;;;;;;42.00;25.67;;;6.70;99.90;;;;;;5071978;28;20364;-54
2022/03/16 04:39:49;;;;;;;31.83;21.92;;;6.60;99.90;;;;;;5072140;28;20479;-50
2022/03/16 04:42:15;;;;;;;34.60;23.15;;;6.70;99.90;;;;;;5072177;28;20024;-55
2022/03/16 04:44:41;;;;;;;39.08;26.20;;;6.60;99.90;;;;;;5072130;28;20020;-52
2022/03/16 04:47:07;;;;;;;27.83;19.55;;;6.60;99.90;;;;;;5071931;28;20035;-52
2022/03/16 04:49:32;;;;;;;33.30;24.08;;;6.60;99.90;;;;;;5072159;28;20033;-49
2022/03/16 04:51:58;;;;;;;33.00;20.27;;;6.60;99.90;;;;;;5072148;28;20038;-52
2022/03/16 04:54:23;;;;;;;32.60;22.67;;;6.60;99.90;;;;;;5072134;28;20033;-50
2022/03/16 04:56:49;;;;;;;34.03;21.38;;;6.60;99.90;;;;;;5071673;28;20029;-49
2022/03/16 04:59:15;;;;;;;27.52;20.63;;;6.60;99.90;;;;;;5072216;28;20028;-50
2022/03/16 05:01:41;;;;;;;31.33;25.10;;;6.50;99.90;;;;;;5071721;28;20056;-55
2022/03/16 05:04:06;;;;;;;27.13;22.30;;;6.60;99.90;;;;;;5071953;28;20024;-54
2022/03/16 05:06:32;;;;;;;25.80;20.33;;;6.50;99.90;;;;;;5071797;28;20025;-52
2022/03/16 05:08:58;;;;;;;28.70;21.67;;;6.40;99.90;;;;;;5071804;28;20028;-50
2022/03/16 05:11:23;;;;;;;28.08;19.75;;;6.40;99.90;;;;;;5062599;28;20380;-53
2022/03/16 05:13:49;;;;;;;25.83;20.23;;;6.50;99.90;;;;;;5051572;28;20056;-50
2022/03/16 05:16:16;;;;;;;27.20;19.25;;;6.40;99.90;;;;;;5051867;28;20614;-52
2022/03/16 05:18:44;;;;;;;25.65;19.60;;;6.40;99.90;;;;;;5051695;28;20036;-54
2022/03/16 05:21:10;;;;;;;26.60;20.70;;;6.30;99.90;;;;;;5051656;28;20362;-56
2022/03/16 05:23:36;;;;;;;24.15;19.33;;;6.30;99.90;;;;;;5051552;28;20033;-55
2022/03/16 05:26:02;;;;;;;27.10;20.85;;;6.20;99.90;;;;;;5050173;28;20690;-54
2022/03/16 05:28:28;;;;;;;26.98;20.70;;;6.10;99.90;;;;;;5051613;28;20017;-52
2022/03/16 05:30:54;;;;;;;31.30;23.88;;;6.10;99.90;;;;;;5051354;28;20603;-52
2022/03/16 05:33:19;;;;;;;33.45;23.52;;;6.10;99.90;;;;;;5051558;28;20028;-54
2022/03/16 05:35:45;;;;;;;28.00;20.35;;;6.10;99.90;;;;;;5050120;28;20033;-52
2022/03/16 05:38:14;;;;;;;30.10;24.45;;;6.10;99.90;;;;;;5051613;28;20029;-53
2022/03/16 05:40:40;;;;;;;27.30;21.42;;;6.10;99.90;;;;;;5051265;28;20028;-53
2022/03/16 05:43:06;;;;;;;29.17;21.15;;;6.00;99.90;;;;;;5051474;28;20028;-52
2022/03/16 05:45:32;;;;;;;28.48;20.55;;;6.10;99.90;;;;;;5051408;28;20021;-53
2022/03/16 05:47:58;;;;;;;25.58;19.83;;;6.10;99.90;;;;;;5051460;28;20045;-56
2022/03/16 05:50:28;;;;;;;24.90;18.90;;;6.10;99.90;;;;;;5052319;28;20491;-54
2022/03/16 05:52:58;;;;;;;23.42;18.58;;;6.10;99.90;;;;;;5055625;28;20025;-56
2022/03/16 05:55:24;;;;;;;22.85;17.58;;;6.20;99.90;;;;;;5055486;28;20021;-53
2022/03/16 05:57:50;;;;;;;24.17;18.50;;;6.10;99.90;;;;;;5055418;28;20031;-54
2022/03/16 06:00:17;;;;;;;24.90;18.77;;;6.10;99.90;;;;;;5055425;28;20021;-53
2022/03/16 06:02:46;;;;;;;23.80;18.75;;;6.20;99.90;;;;;;5054525;28;20028;-52
2022/03/16 06:05:13;;;;;;;24.88;19.55;;;6.20;99.90;;;;;;5055322;28;20492;-53
2022/03/16 06:07:39;;;;;;;22.50;17.80;;;6.20;99.90;;;;;;5055209;28;20410;-49
2022/03/16 06:10:09;;;;;;;24.73;19.92;;;6.30;99.90;;;;;;5055229;28;20036;-52
2022/03/16 06:12:52;;;;;;;26.73;21.15;;;6.40;99.90;;;;;;5053420;28;20703;-55
2022/03/16 06:15:18;;;;;;;28.00;22.67;;;6.40;99.90;;;;;;5065154;28;20033;-52
2022/03/16 06:17:44;;;;;;;27.05;22.25;;;6.50;99.90;;;;;;5063440;28;20391;-53
2022/03/16 06:20:10;;;;;;;22.05;18.27;;;6.50;99.90;;;;;;5064949;28;20035;-57
2022/03/16 06:22:36;;;;;;;21.13;16.98;;;6.60;99.90;;;;;;5064705;28;20029;-58
2022/03/16 06:25:02;;;;;;;24.15;18.27;;;6.50;99.90;;;;;;5062804;28;20044;-54
2022/03/16 06:27:27;;;;;;;21.13;17.00;;;6.60;99.90;;;;;;5065620;28;20063;-58
2022/03/16 06:29:53;;;;;;;22.52;17.52;;;6.70;99.90;;;;;;5063208;28;20037;-55
2022/03/16 06:32:19;;;;;;;21.40;17.58;;;6.70;99.90;;;;;;5066257;28;20060;-56
2022/03/16 06:34:46;;;;;;;23.13;18.20;;;6.70;99.90;;;;;;5074590;28;20471;-52
2022/03/16 06:37:13;;;;;;;22.13;17.65;;;6.80;99.90;;;;;;5074751;28;20029;-56
2022/03/16 06:39:38;;;;;;;21.83;17.15;;;6.70;99.90;;;;;;5074519;28;20639;-51
2022/03/16 06:42:04;;;;;;;21.60;16.92;;;6.70;99.90;;;;;;5074175;28;20066;-56
2022/03/16 06:44:30;;;;;;;22.40;17.95;;;6.90;99.90;;;;;;5074523;28;20024;-59
2022/03/16 06:46:56;;;;;;;20.65;16.38;;;6.90;99.90;;;;;;5074529;28;20035;-55
2022/03/16 06:49:22;;;;;;;19.48;16.08;;;7.10;99.90;;;;;;5074566;28;20020;-58
2022/03/16 06:51:48;;;;;;;21.23;16.38;;;7.10;99.90;;;;;;5074279;28;20073;-58
2022/03/16 06:54:13;;;;;;;26.63;19.50;;;7.00;99.90;;;;;;5074322;28;20379;-56
2022/03/16 06:56:39;;;;;;;25.10;17.83;;;7.00;99.90;;;;;;5074189;28;20032;-56
2022/03/16 06:59:05;;;;;;;28.75;19.52;;;6.90;99.90;;;;;;5074372;28;20009;-59
2022/03/16 07:01:30;;;;;;;31.60;23.05;;;6.90;99.90;;;;;;5073447;28;20353;-59
2022/03/16 07:03:56;;;;;;;25.67;20.60;;;6.90;99.90;;;;;;5073978;28;20044;-58
2022/03/16 07:06:21;;;;;;;28.23;19.63;;;6.90;99.90;;;;;;5074149;28;20028;-57
2022/03/16 07:08:48;;;;;;;22.08;17.73;;;7.00;99.90;;;;;;5073873;28;20021;-56
2022/03/16 07:11:16;;;;;;;84.25;49.50;;;7.10;99.90;;;;;;5073673;28;20028;-59
2022/03/16 07:13:43;;;;;;;21.63;18.08;;;7.10;99.90;;;;;;5072347;28;20079;-58
2022/03/16 07:16:09;;;;;;;22.00;18.27;;;7.00;99.90;;;;;;5073676;28;20044;-57
2022/03/16 07:18:34;;;;;;;36.60;24.70;;;6.90;99.90;;;;;;5073445;28;20038;-57
2022/03/16 07:21:00;;;;;;;36.05;24.70;;;7.00;99.90;;;;;;5073550;28;20518;-58
2022/03/16 07:23:26;;;;;;;20.98;15.85;;;7.00;99.90;;;;;;5073438;28;20551;-58
2022/03/16 07:25:53;;;;;;;23.30;18.05;;;7.10;99.90;;;;;;5071749;28;20074;-58
2022/03/16 07:28:19;;;;;;;51.25;29.55;;;7.20;99.90;;;;;;5072192;28;20078;-58
2022/03/16 07:30:47;;;;;;;42.58;26.88;;;7.30;99.90;;;;;;5071688;28;20028;-58
2022/03/16 07:33:13;;;;;;;82.05;45.05;;;7.30;99.90;;;;;;5073401;28;20086;-54
2022/03/16 07:35:39;;;;;;;24.80;17.70;;;7.40;99.90;;;;;;5073061;28;20735;-56
2022/03/16 07:38:06;;;;;;;53.92;32.72;;;7.50;99.90;;;;;;5073504;28;20177;-55
2022/03/16 07:40:36;;;;;;;21.58;17.40;;;7.50;99.90;;;;;;5073043;28;20087;-59
2022/03/16 07:43:02;;;;;;;19.98;17.40;;;7.40;99.90;;;;;;5073093;28;20013;-56
2022/03/16 07:45:28;;;;;;;20.98;17.83;;;7.40;99.90;;;;;;5071720;28;20064;-59
2022/03/16 07:47:56;;;;;;;20.08;16.70;;;7.40;99.90;;;;;;5073245;28;20020;-59
2022/03/16 07:50:22;;;;;;;23.10;16.25;;;7.50;99.90;;;;;;5073090;28;20029;-59
2022/03/16 07:52:48;;;;;;;21.45;16.73;;;7.50;99.90;;;;;;5072651;28;20055;-60
2022/03/16 07:55:14;;;;;;;18.65;16.15;;;7.60;99.90;;;;;;5072953;28;20020;-58
2022/03/16 07:57:40;;;;;;;20.15;16.08;;;7.70;99.90;;;;;;5073028;28;20024;-58
2022/03/16 08:00:10;;;;;;;17.60;14.88;;;7.80;99.90;;;;;;5072946;28;20025;-60
2022/03/16 08:02:37;;;;;;;20.65;16.42;;;7.80;99.90;;;;;;5072994;28;20598;-58
2022/03/16 08:05:03;;;;;;;33.03;23.70;;;8.00;99.90;;;;;;5072682;28;20016;-59
2022/03/16 08:07:29;;;;;;;19.73;16.77;;;8.10;99.90;;;;;;5073206;28;20024;-60
2022/03/16 08:09:56;;;;;;;17.60;14.00;;;8.00;99.90;;;;;;5073081;28;20150;-61
2022/03/16 08:12:22;;;;;;;53.72;34.95;;;8.40;99.90;;;;;;5072570;28;20122;-59
2022/03/16 08:14:48;;;;;;;15.75;13.48;;;8.30;99.90;;;;;;5071066;28;20419;-60
2022/03/16 08:17:14;;;;;;;18.88;15.18;;;8.60;99.90;;;;;;5072691;28;20020;-59
2022/03/16 08:19:40;;;;;;;16.63;14.57;;;8.80;99.90;;;;;;5072465;28;20353;-61
2022/03/16 08:22:05;;;;;;;21.05;14.68;;;8.90;99.90;;;;;;5072466;28;20028;-62
2022/03/16 08:24:31;;;;;;;17.10;13.90;;;9.00;99.90;;;;;;5071217;28;20029;-62
2022/03/16 08:26:57;;;;;;;25.45;13.63;;;9.00;99.90;;;;;;5072500;28;20104;-58
2022/03/16 08:29:22;;;;;;;28.13;19.48;;;9.10;99.90;;;;;;5072612;28;20028;-58
2022/03/16 08:31:48;;;;;;;38.67;19.33;;;9.00;99.90;;;;;;5072192;28;20028;-57
2022/03/16 08:34:13;;;;;;;13.20;10.82;;;9.00;99.90;;;;;;5072359;28;20043;-58
2022/03/16 08:36:39;;;;;;;18.42;13.50;;;9.30;99.90;;;;;;5072127;28;20048;-57
2022/03/16 08:39:06;;;;;;;12.40;11.10;;;9.30;99.90;;;;;;5072461;28;20146;-57
2022/03/16 08:41:32;;;;;;;14.25;10.88;;;9.50;99.90;;;;;;5071854;28;20025;-57
2022/03/16 08:43:59;;;;;;;13.52;10.15;;;9.60;99.90;;;;;;5071912;28;20047;-58
2022/03/16 08:46:24;;;;;;;17.25;11.85;;;9.60;99.90;;;;;;5072178;28;20107;-57
2022/03/16 08:48:50;;;;;;;16.02;12.57;;;9.70;99.90;;;;;;5071701;28;20551;-58
2022/03/16 08:51:15;;;;;;;12.75;11.20;;;9.50;99.90;;;;;;5071811;28;20028;-58
2022/03/16 08:53:41;;;;;;;20.95;15.30;;;9.50;99.90;;;;;;5071488;28;20024;-58
2022/03/16 08:56:07;;;;;;;52.75;17.70;;;9.80;99.90;;;;;;5071090;28;20365;-58
2022/03/16 08:58:33;;;;;;;14.48;12.13;;;9.90;99.90;;;;;;5071272;28;20427;-58
2022/03/16 09:00:59;;;;;;;11.93;10.65;;;10.10;99.90;;;;;;5071623;28;20024;-59
2022/03/16 09:03:25;;;;;;;18.65;16.33;;;10.20;99.20;;;;;;5071624;28;20434;-58
2022/03/16 09:05:52;;;;;;;13.80;12.30;;;10.00;99.90;;;;;;5071337;28;20025;-57
2022/03/16 09:08:18;;;;;;;11.82;10.57;;;9.90;99.40;;;;;;5071693;28;20032;-57
2022/03/16 09:10:45;;;;;;;13.73;11.40;;;10.30;99.70;;;;;;5071618;28;20074;-55
2022/03/16 09:13:10;;;;;;;16.38;11.80;;;10.50;99.50;;;;;;5070260;28;20059;-58
2022/03/16 09:15:36;;;;;;;13.48;11.07;;;10.50;99.90;;;;;;5071696;28;20024;-58
2022/03/16 09:18:02;;;;;;;14.38;12.40;;;10.50;98.20;;;;;;5071481;28;20051;-56
2022/03/16 09:20:28;;;;;;;14.90;12.85;;;10.50;98.40;;;;;;5060759;28;20044;-58
2022/03/16 09:22:54;;;;;;;15.20;13.02;;;10.60;99.90;;;;;;5023078;28;20021;-57
2022/03/16 09:25:22;;;;;;;15.10;12.23;;;10.80;99.90;;;;;;5028823;28;20372;-59
2022/03/16 09:27:48;;;;;;;14.25;12.13;;;10.80;98.60;;;;;;5034208;28;20436;-56
2022/03/16 09:30:13;;;;;;;17.50;13.50;;;10.80;99.70;;;;;;5040014;28;20028;-56
2022/03/16 09:32:39;;;;;;;14.88;13.23;;;10.80;99.50;;;;;;5041499;28;20419;-58
2022/03/16 09:35:06;;;;;;;14.55;12.90;;;11.10;99.20;;;;;;5045889;28;20116;-57
2022/03/16 09:37:32;;;;;;;14.85;12.77;;;11.20;99.10;;;;;;5050608;28;20380;-58
2022/03/16 09:39:58;;;;;;;15.32;13.07;;;11.20;99.20;;;;;;5049688;28;20048;-58
2022/03/16 09:42:25;;;;;;;15.80;13.80;;;11.50;97.90;;;;;;5050920;28;20025;-59
2022/03/16 09:44:53;;;;;;;14.88;12.73;;;11.50;97.60;;;;;;5050923;28;20387;-58
2022/03/16 09:47:22;;;;;;;15.73;13.45;;;11.60;96.60;;;;;;5050837;28;20017;-57
2022/03/16 09:49:48;;;;;;;14.80;12.82;;;11.90;98.00;;;;;;5050936;28;20027;-57
2022/03/16 09:52:14;;;;;;;16.15;13.55;;;12.10;97.20;;;;;;5051425;28;20127;-59
2022/03/16 09:54:41;;;;;;;15.95;13.40;;;11.90;96.30;;;;;;5051011;28;20029;-58
2022/03/16 09:57:06;;;;;;;19.13;14.18;;;12.30;96.50;;;;;;5051087;28;20021;-59
2022/03/16 09:59:32;;;;;;;14.45;12.95;;;12.40;94.50;;;;;;5050865;28;20027;-58
2022/03/16 10:02:12;;;;;;;14.82;13.18;;;12.40;94.10;;;;;;5050963;28;20040;-58
2022/03/16 10:04:39;;;;;;;17.90;14.93;;;11.80;94.20;;;;;;5050736;28;20048;-59
2022/03/16 10:07:05;;;;;;;18.48;13.45;;;12.00;94.20;;;;;;5051084;28;20104;-58
2022/03/16 10:15:13;;;;;;;16.40;14.55;;;12.20;92.40;;;;;;5051150;28;20175;-58
2022/03/16 10:17:45;;;;;;;17.48;14.57;;;12.00;93.50;;;;;;5051040;28;20028;-58
2022/03/16 10:20:19;;;;;;;16.00;13.88;;;11.60;93.00;;;;;;5049558;28;20095;-57
2022/03/16 10:22:52;;;;;;;16.80;13.48;;;11.60;94.60;;;;;;5050821;28;20025;-53
2022/03/16 10:25:18;;;;;;;17.08;15.25;;;11.60;95.10;;;;;;5050836;28;20025;-58
2022/03/16 10:27:44;;;;;;;24.20;17.23;;;11.70;94.80;;;;;;5050910;28;20021;-57
2022/03/16 10:30:09;;;;;;;16.45;14.75;;;11.70;94.00;;;;;;5051037;28;20344;-57
2022/03/16 10:32:36;;;;;;;18.15;15.68;;;11.60;93.70;;;;;;5050717;28;20025;-57
2022/03/16 10:35:05;;;;;;;18.58;15.75;;;11.40;94.30;;;;;;5050744;28;20079;-56
2022/03/16 10:37:32;;;;;;;17.65;15.00;;;11.40;93.90;;;;;;5053424;28;20053;-59
2022/03/16 10:39:58;;;;;;;16.85;14.77;;;11.20;95.80;;;;;;5054431;28;20021;-54
2022/03/16 10:48:15;;;;;;;51.35;23.25;;;12.80;94.20;;;;;;5054627;28;20040;-58
2022/03/16 10:50:44;;;;;;;29.52;17.30;;;13.50;91.40;;;;;;5052849;28;20036;-57
2022/03/16 10:53:14;;;;;;;16.42;14.05;;;14.00;90.00;;;;;;5053277;28;20017;-59
2022/03/16 10:55:41;;;;;;;18.48;14.10;;;14.30;89.20;;;;;;5052849;28;20115;-59
2022/03/16 10:58:08;;;;;;;15.60;13.73;;;15.20;91.00;;;;;;5053439;28;20017;-59
2022/03/16 11:00:38;;;;;;;16.63;14.43;;;16.90;79.40;;;;;;5053567;28;20395;-59
2022/03/16 11:03:09;;;;;;;16.42;13.95;;;16.60;76.30;;;;;;5054000;28;20419;-58
2022/03/16 11:05:38;;;;;;;21.25;15.82;;;17.10;70.70;;;;;;5046312;28;20052;-59
2022/03/16 11:08:07;;;;;;;16.33;14.65;;;16.80;66.40;;;;;;5043269;28;20033;-59
2022/03/16 11:10:40;;;;;;;15.85;14.15;;;16.60;69.10;;;;;;5043182;28;20082;-59
2022/03/16 11:15:52;;;;;;;15.98;14.25;;;16.40;65.40;;;;;;5043360;28;20366;-59
2022/03/16 11:18:21;;;;;;;18.08;13.85;;;16.90;65.30;;;;;;5042705;28;20017;-60
2022/03/16 11:20:49;;;;;;;15.40;13.80;;;17.50;66.10;;;;;;5042755;28;20045;-58
2022/03/16 11:26:23;;;;;;;18.52;16.52;;;18.40;61.20;;;;;;5053163;28;20028;-59
2022/03/16 11:29:23;;;;;;;17.20;15.50;;;17.30;60.50;;;;;;5053609;28;20063;-58
2022/03/16 11:31:49;;;;;;;16.02;14.40;;;18.40;59.60;;;;;;5053617;28;20025;-59
2022/03/16 11:34:22;;;;;;;17.33;15.45;;;19.30;57.50;;;;;;5053604;28;20033;-59
2022/03/16 11:36:59;;;;;;;;;;;18.00;56.80;;;;;;5054049;28;20092;-59
2022/03/16 11:39:24;;;;;;;16.15;14.45;;;18.20;58.30;;;;;;5053624;28;19908;-59
2022/03/16 11:41:53;;;;;;;17.48;15.68;;;18.90;55.80;;;;;;5053284;28;20048;-59
2022/03/16 11:44:28;;;;;;;19.13;17.08;;;18.90;54.40;;;;;;5053605;28;20464;-59
2022/03/16 11:46:54;;;;;;;17.00;15.20;;;17.90;56.00;;;;;;5053407;28;20018;-60
2022/03/16 11:49:29;;;;;;;17.92;16.08;;;17.10;59.30;;;;;;5052700;28;20025;-59
2022/03/16 11:52:02;;;;;;;16.92;15.02;;;17.30;56.60;;;;;;5053396;28;20032;-59
2022/03/16 11:54:45;;;;;;;;;;;18.60;55.50;;;;;;5053769;28;20052;-59
2022/03/16 11:57:11;;;;;;;16.10;14.40;;;18.50;54.40;;;;;;5053218;28;19912;-59
2022/03/16 11:59:45;;;;;;;19.88;16.48;;;18.60;53.70;;;;;;5053115;28;20053;-58
2022/03/16 12:02:27;;;;;;;17.80;15.90;;;18.30;55.80;;;;;;5053074;28;20032;-59
2022/03/16 12:05:01;;;;;;;17.77;15.80;;;18.60;53.10;;;;;;5052880;28;20038;-60
2022/03/16 12:07:34;;;;;;;17.67;15.88;;;18.80;55.00;;;;;;5053198;28;20017;-59
2022/03/16 12:10:07;;;;;;;17.92;16.08;;;19.40;51.50;;;;;;5053069;28;20029;-58
2022/03/16 12:12:55;;;;;;;18.98;16.70;;;19.20;52.90;;;;;;5052506;28;20420;-59
2022/03/16 12:15:39;;;;;;;20.42;18.17;;;18.00;53.50;;;;;;5052882;28;20059;-58
2022/03/16 12:18:07;;;;;;;23.67;20.88;;;17.80;54.10;;;;;;5052877;28;20017;-58
2022/03/16 12:20:42;;;;;;;21.50;18.77;;;16.30;56.70;;;;;;5052533;28;20039;-58
2022/03/16 12:23:10;;;;;;;22.00;19.63;;;15.30;58.30;;;;;;5051592;28;20051;-58
2022/03/16 12:25:37;;;;;;;22.77;19.92;;;14.60;59.90;;;;;;5051214;28;20162;-57
2022/03/16 12:31:01;;;;;;;23.23;20.35;;;13.50;63.70;;;;;;5051423;28;20094;-57
2022/03/16 12:33:30;;;;;;;32.40;21.75;;;13.30;65.50;;;;;;5052310;28;20025;-55
2022/03/16 12:36:02;;;;;;;27.60;20.75;;;13.00;66.60;;;;;;5051823;28;20082;-58
2022/03/16 12:38:30;;;;;;;25.30;20.85;;;13.00;68.10;;;;;;5051528;28;20021;-57
2022/03/16 12:43:45;;;;;;;25.08;22.38;;;12.80;69.90;;;;;;5051915;28;20384;-58
2022/03/16 12:46:25;;;;;;;40.42;22.88;;;12.90;70.80;;;;;;5052215;28;20060;-57
2022/03/16 12:49:02;;;;;;;22.75;19.50;;;13.00;72.50;;;;;;5050796;28;20119;-58
2022/03/16 12:51:47;;;;;;;26.13;21.98;;;13.30;69.80;;;;;;5050937;28;20468;-58
2022/03/16 12:54:13;;;;;;;24.67;20.77;;;13.50;69.80;;;;;;5052282;28;20476;-58
2022/03/16 12:56:41;;;;;;;28.20;20.83;;;13.30;68.70;;;;;;5051848;28;20028;-58
2022/03/16 12:59:08;;;;;;;29.48;21.98;;;13.80;69.50;;;;;;5052176;28;20104;-58